Seto — 3FZB4 — position and weather

sailwx.info

Track history (hours):
 
Tides and Currents Weather Stations Pressure Air Temp Water Temp Dewpoint Dewpoint Depression Visibility Wind Speed Wind Dir Waves Ship Positions

Seto

Last reported at 2017-Oct-18 11:40 UTC. Time now 2017-Oct-22 08:18 UTC.
Position N 28°14' W 115°03'.

Length 273 m; draft 10 m.

Type: Cargo ship. MMSI: 354951000.

Date/timePositionNaut miles runAvg speedWind from/ knotsBaromVisibWave heightAir tempDewpointWater temp
2017-Oct-18 11:40N 28°14' W 115°03'814.0
2017-Oct-18 11:04N 28°22' W 115°03'114.0
2017-Oct-18 11:00N 28°23' W 115°03'714.5
2017-Oct-18 10:30N 28°29' W 115°08'713.7
2017-Oct-18 10:00N 28°32' W 115°15'714.1
2017-Oct-18 09:29N 28°34' W 115°23'714.3
2017-Oct-18 08:59N 28°36' W 115°30'8714.1
2017-Oct-18 02:50N 29°02' W 117°05'513.6
2017-Oct-18 02:28N 29°03' W 117°10'3414.0
2017-Oct-18 00:02N 29°12' W 117°48'5113.9
2017-Oct-17 20:23N 29°28' W 118°43'513.8
2017-Oct-17 20:00N 29°29' W 118°49'713.8
2017-Oct-17 19:30N 29°31' W 118°57'813.7
2017-Oct-17 18:57N 29°34' W 119°05'613.8
2017-Oct-17 18:30N 29°35' W 119°12'713.5
2017-Oct-17 18:00N 29°37' W 119°19'713.6
2017-Oct-17 17:30N 29°39' W 119°27'713.8
2017-Oct-17 17:00N 29°41' W 119°34'1013.7
2017-Oct-17 16:17N 29°44' W 119°45'413.8
2017-Oct-17 16:00N 29°45' W 119°49'713.7
2017-Oct-17 15:30N 29°47' W 119°57'713.6
2017-Oct-17 15:01N 29°49' W 120°05'713.6
2017-Oct-17 14:30N 29°51' W 120°12'1413.7
2017-Oct-17 13:30N 29°55' W 120°27'713.7
2017-Oct-17 13:00N 29°57' W 120°35'713.6
2017-Oct-17 12:30N 29°59' W 120°42'713.5
2017-Oct-17 12:01N 30°01' W 120°50'1113.9
2017-Oct-17 11:14N 30°04' W 121°02'1013.5
2017-Oct-17 10:28N 30°08' W 121°13'613.5
2017-Oct-17 10:01N 30°09' W 121°20'713.6
2017-Oct-17 09:31N 30°11' W 121°27'713.5
2017-Oct-17 09:01N 30°13' W 121°35'713.9
2017-Oct-17 08:30N 30°15' W 121°42'713.9
2017-Oct-17 08:00N 30°17' W 121°50'713.6
2017-Oct-17 07:30N 30°20' W 121°58'713.4
2017-Oct-17 07:00N 30°23' W 122°05'713.6
2017-Oct-17 06:30N 30°26' W 122°11'713.9
2017-Oct-17 06:00N 30°30' W 122°18'713.7
2017-Oct-17 05:30N 30°33' W 122°25'713.6
2017-Oct-17 05:00N 30°37' W 122°32'1513.9
2017-Oct-17 03:55N 30°45' W 122°47'3414.0
2017-Oct-17 01:30N 31°03' W 123°20'814.0
2017-Oct-17 00:54N 31°07' W 123°28'913.7
2017-Oct-17 00:17N 31°11' W 123°37'2113.7
2017-Oct-16 22:43N 31°22' W 123°59'313.7
2017-Oct-16 22:30N 31°24' W 124°02'713.6
2017-Oct-16 21:58N 31°28' W 124°09'613.5
2017-Oct-16 21:30N 31°32' W 124°15'713.4
2017-Oct-16 21:00N 31°35' W 124°21'713.5
2017-Oct-16 20:30N 31°39' W 124°28'713.4
2017-Oct-16 20:00N 31°42' W 124°35'713.5
2017-Oct-16 19:27N 31°46' W 124°43'713.6
2017-Oct-16 18:56N 31°49' W 124°50'613.5
2017-Oct-16 18:30N 31°53' W 124°55'1213.7
2017-Oct-16 17:40N 31°59' W 125°07'213.6
2017-Oct-16 17:30N 31°60' W 125°09'1113.4
2017-Oct-16 16:41N 32°06' W 125°20'313.4
2017-Oct-16 16:29N 32°07' W 125°23'1713.5
2017-Oct-16 15:15N 32°16' W 125°39'1713.3
2017-Oct-16 13:58N 32°25' W 125°57'1713.5
2017-Oct-16 12:44N 32°34' W 126°14'1013.6
2017-Oct-16 11:59N 32°39' W 126°24'  
Track history (hours):
 
Tides and Currents Weather Stations Pressure Air Temp Water Temp Dewpoint Dewpoint Depression Visibility Wind Speed Wind Dir Waves Ship Positions

Seto

Last reported at 2017-Oct-18 11:40 UTC. Time now 2017-Oct-22 08:18 UTC.
Position N 28°14' W 115°03'.

Length 273 m; draft 10 m.

Type: Cargo ship. MMSI: 354951000.

Date/timePositionNaut miles runAvg speedWind from/ knotsBaromVisibWave heightAir tempDewpointWater temp
2017-Oct-18 11:40N 28°14' W 115°03'814.0
2017-Oct-18 11:04N 28°22' W 115°03'114.0
2017-Oct-18 11:00N 28°23' W 115°03'714.5
2017-Oct-18 10:30N 28°29' W 115°08'713.7
2017-Oct-18 10:00N 28°32' W 115°15'714.1
2017-Oct-18 09:29N 28°34' W 115°23'714.3
2017-Oct-18 08:59N 28°36' W 115°30'8714.1
2017-Oct-18 02:50N 29°02' W 117°05'513.6
2017-Oct-18 02:28N 29°03' W 117°10'3414.0
2017-Oct-18 00:02N 29°12' W 117°48'5113.9
2017-Oct-17 20:23N 29°28' W 118°43'513.8
2017-Oct-17 20:00N 29°29' W 118°49'713.8
2017-Oct-17 19:30N 29°31' W 118°57'813.7
2017-Oct-17 18:57N 29°34' W 119°05'613.8
2017-Oct-17 18:30N 29°35' W 119°12'713.5
2017-Oct-17 18:00N 29°37' W 119°19'713.6
2017-Oct-17 17:30N 29°39' W 119°27'713.8
2017-Oct-17 17:00N 29°41' W 119°34'1013.7
2017-Oct-17 16:17N 29°44' W 119°45'413.8
2017-Oct-17 16:00N 29°45' W 119°49'713.7
2017-Oct-17 15:30N 29°47' W 119°57'713.6
2017-Oct-17 15:01N 29°49' W 120°05'713.6
2017-Oct-17 14:30N 29°51' W 120°12'1413.7
2017-Oct-17 13:30N 29°55' W 120°27'713.7
2017-Oct-17 13:00N 29°57' W 120°35'713.6
2017-Oct-17 12:30N 29°59' W 120°42'713.5
2017-Oct-17 12:01N 30°01' W 120°50'1113.9
2017-Oct-17 11:14N 30°04' W 121°02'1013.5
2017-Oct-17 10:28N 30°08' W 121°13'613.5
2017-Oct-17 10:01N 30°09' W 121°20'713.6
2017-Oct-17 09:31N 30°11' W 121°27'713.5
2017-Oct-17 09:01N 30°13' W 121°35'713.9
2017-Oct-17 08:30N 30°15' W 121°42'713.9
2017-Oct-17 08:00N 30°17' W 121°50'713.6
2017-Oct-17 07:30N 30°20' W 121°58'713.4
2017-Oct-17 07:00N 30°23' W 122°05'713.6
2017-Oct-17 06:30N 30°26' W 122°11'713.9
2017-Oct-17 06:00N 30°30' W 122°18'713.7
2017-Oct-17 05:30N 30°33' W 122°25'713.6
2017-Oct-17 05:00N 30°37' W 122°32'1513.9
2017-Oct-17 03:55N 30°45' W 122°47'3414.0
2017-Oct-17 01:30N 31°03' W 123°20'814.0
2017-Oct-17 00:54N 31°07' W 123°28'913.7
2017-Oct-17 00:17N 31°11' W 123°37'2113.7
2017-Oct-16 22:43N 31°22' W 123°59'313.7
2017-Oct-16 22:30N 31°24' W 124°02'713.6
2017-Oct-16 21:58N 31°28' W 124°09'613.5
2017-Oct-16 21:30N 31°32' W 124°15'713.4
2017-Oct-16 21:00N 31°35' W 124°21'713.5
2017-Oct-16 20:30N 31°39' W 124°28'713.4
2017-Oct-16 20:00N 31°42' W 124°35'713.5
2017-Oct-16 19:27N 31°46' W 124°43'713.6
2017-Oct-16 18:56N 31°49' W 124°50'613.5
2017-Oct-16 18:30N 31°53' W 124°55'1213.7
2017-Oct-16 17:40N 31°59' W 125°07'213.6
2017-Oct-16 17:30N 31°60' W 125°09'1113.4
2017-Oct-16 16:41N 32°06' W 125°20'313.4
2017-Oct-16 16:29N 32°07' W 125°23'1713.5
2017-Oct-16 15:15N 32°16' W 125°39'1713.3
2017-Oct-16 13:58N 32°25' W 125°57'1713.5
2017-Oct-16 12:44N 32°34' W 126°14'1013.6
2017-Oct-16 11:59N 32°39' W 126°24'  

Dump ship's entire track history